sensor_id;sensor_type;location;lat;lon;timestamp;temperature;humidity
25024;DHT22;13033;50.936;5.334;2023-10-09T00:01:06;17.50;99.90
25024;DHT22;13033;50.936;5.334;2023-10-09T00:03:35;17.40;99.90
25024;DHT22;13033;50.936;5.334;2023-10-09T00:06:02;17.40;99.90
25024;DHT22;13033;50.936;5.334;2023-10-09T00:08:29;17.50;99.90
25024;DHT22;13033;50.936;5.334;2023-10-09T00:11:00;17.50;99.90
25024;DHT22;13033;50.936;5.334;2023-10-09T00:13:45;17.60;99.90
25024;DHT22;13033;50.936;5.334;2023-10-09T00:16:16;17.60;99.90
25024;DHT22;13033;50.936;5.334;2023-10-09T00:18:42;17.70;99.90
25024;DHT22;13033;50.936;5.334;2023-10-09T00:21:18;17.70;99.90
25024;DHT22;13033;50.936;5.334;2023-10-09T00:23:53;17.80;99.90
25024;DHT22;13033;50.936;5.334;2023-10-09T00:26:21;17.60;99.90
25024;DHT22;13033;50.936;5.334;2023-10-09T00:28:47;17.60;99.90
25024;DHT22;13033;50.936;5.334;2023-10-09T00:31:19;17.70;99.90
25024;DHT22;13033;50.936;5.334;2023-10-09T00:33:59;17.50;99.90
25024;DHT22;13033;50.936;5.334;2023-10-09T00:36:32;17.40;99.90
25024;DHT22;13033;50.936;5.334;2023-10-09T00:38:58;17.40;99.90
25024;DHT22;13033;50.936;5.334;2023-10-09T00:41:35;17.40;99.90
25024;DHT22;13033;50.936;5.334;2023-10-09T00:44:01;17.40;99.90
25024;DHT22;13033;50.936;5.334;2023-10-09T00:46:33;17.40;99.90
25024;DHT22;13033;50.936;5.334;2023-10-09T00:49:00;17.40;99.90
25024;DHT22;13033;50.936;5.334;2023-10-09T00:51:28;17.40;99.90
25024;DHT22;13033;50.936;5.334;2023-10-09T00:54:02;17.40;99.90
25024;DHT22;13033;50.936;5.334;2023-10-09T00:56:34;17.30;99.90
25024;DHT22;13033;50.936;5.334;2023-10-09T00:59:05;17.40;99.90
25024;DHT22;13033;50.936;5.334;2023-10-09T01:01:35;17.40;99.90
25024;DHT22;13033;50.936;5.334;2023-10-09T01:04:13;17.50;99.90
25024;DHT22;13033;50.936;5.334;2023-10-09T01:06:44;17.50;99.90
25024;DHT22;13033;50.936;5.334;2023-10-09T01:09:12;17.50;99.90
25024;DHT22;13033;50.936;5.334;2023-10-09T01:11:40;17.70;99.90
25024;DHT22;13033;50.936;5.334;2023-10-09T01:14:28;17.70;99.90
25024;DHT22;13033;50.936;5.334;2023-10-09T01:16:56;17.70;99.90
25024;DHT22;13033;50.936;5.334;2023-10-09T01:19:22;17.70;99.90
25024;DHT22;13033;50.936;5.334;2023-10-09T01:21:56;17.60;99.90
25024;DHT22;13033;50.936;5.334;2023-10-09T01:24:30;17.50;99.90
25024;DHT22;13033;50.936;5.334;2023-10-09T01:26:57;17.50;99.90
25024;DHT22;13033;50.936;5.334;2023-10-09T01:29:25;17.60;99.90
25024;DHT22;13033;50.936;5.334;2023-10-09T01:31:56;17.60;99.90
25024;DHT22;13033;50.936;5.334;2023-10-09T01:34:33;17.80;99.90
25024;DHT22;13033;50.936;5.334;2023-10-09T01:37:13;17.80;99.90
25024;DHT22;13033;50.936;5.334;2023-10-09T01:39:52;17.90;99.90
25024;DHT22;13033;50.936;5.334;2023-10-09T01:42:20;17.80;99.90
25024;DHT22;13033;50.936;5.334;2023-10-09T01:44:55;17.70;99.90
25024;DHT22;13033;50.936;5.334;2023-10-09T01:47:23;17.60;99.90
25024;DHT22;13033;50.936;5.334;2023-10-09T01:49:51;17.60;99.90
25024;DHT22;13033;50.936;5.334;2023-10-09T01:52:19;17.70;99.90
25024;DHT22;13033;50.936;5.334;2023-10-09T01:54:47;17.70;99.90
25024;DHT22;13033;50.936;5.334;2023-10-09T01:57:20;17.60;99.90
25024;DHT22;13033;50.936;5.334;2023-10-09T01:59:49;17.50;99.90
25024;DHT22;13033;50.936;5.334;2023-10-09T02:02:19;17.50;99.90
25024;DHT22;13033;50.936;5.334;2023-10-09T02:04:56;17.60;99.90
25024;DHT22;13033;50.936;5.334;2023-10-09T02:07:34;17.50;99.90
25024;DHT22;13033;50.936;5.334;2023-10-09T02:10:11;17.50;99.90
25024;DHT22;13033;50.936;5.334;2023-10-09T02:15:28;17.70;99.90
25024;DHT22;13033;50.936;5.334;2023-10-09T02:23:38;17.60;99.90
25024;DHT22;13033;50.936;5.334;2023-10-09T02:26:04;17.70;99.90
25024;DHT22;13033;50.936;5.334;2023-10-09T02:28:32;17.60;99.90
25024;DHT22;13033;50.936;5.334;2023-10-09T02:31:01;17.50;99.90
25024;DHT22;13033;50.936;5.334;2023-10-09T02:33:35;17.40;99.90
25024;DHT22;13033;50.936;5.334;2023-10-09T02:36:05;17.40;99.90
25024;DHT22;13033;50.936;5.334;2023-10-09T02:38:35;17.50;99.90
25024;DHT22;13033;50.936;5.334;2023-10-09T02:41:08;17.50;99.90
25024;DHT22;13033;50.936;5.334;2023-10-09T02:43:39;17.70;99.90
25024;DHT22;13033;50.936;5.334;2023-10-09T02:46:21;17.40;99.90
25024;DHT22;13033;50.936;5.334;2023-10-09T02:48:55;17.30;99.90
25024;DHT22;13033;50.936;5.334;2023-10-09T02:51:24;17.40;99.90
25024;DHT22;13033;50.936;5.334;2023-10-09T02:53:57;17.40;99.90
25024;DHT22;13033;50.936;5.334;2023-10-09T02:56:25;17.40;99.90
25024;DHT22;13033;50.936;5.334;2023-10-09T02:59:07;17.50;99.90
25024;DHT22;13033;50.936;5.334;2023-10-09T03:01:34;17.60;99.90
25024;DHT22;13033;50.936;5.334;2023-10-09T03:04:04;17.60;99.90
25024;DHT22;13033;50.936;5.334;2023-10-09T03:06:31;17.50;99.90
25024;DHT22;13033;50.936;5.334;2023-10-09T03:08:58;17.30;99.90
25024;DHT22;13033;50.936;5.334;2023-10-09T03:11:24;17.30;99.90
25024;DHT22;13033;50.936;5.334;2023-10-09T03:13:52;17.30;99.90
25024;DHT22;13033;50.936;5.334;2023-10-09T03:16:18;17.30;99.90
25024;DHT22;13033;50.936;5.334;2023-10-09T03:18:51;17.40;99.90
25024;DHT22;13033;50.936;5.334;2023-10-09T03:21:18;17.20;99.90
25024;DHT22;13033;50.936;5.334;2023-10-09T03:23:48;17.30;99.90
25024;DHT22;13033;50.936;5.334;2023-10-09T03:26:18;17.40;99.90
25024;DHT22;13033;50.936;5.334;2023-10-09T03:28:48;17.50;99.90
25024;DHT22;13033;50.936;5.334;2023-10-09T03:31:14;17.40;99.90
25024;DHT22;13033;50.936;5.334;2023-10-09T03:33:40;17.40;99.90
25024;DHT22;13033;50.936;5.334;2023-10-09T03:36:07;17.50;99.90
25024;DHT22;13033;50.936;5.334;2023-10-09T03:38:38;17.30;99.90
25024;DHT22;13033;50.936;5.334;2023-10-09T03:41:05;17.30;99.90
25024;DHT22;13033;50.936;5.334;2023-10-09T03:43:33;17.40;99.90
25024;DHT22;13033;50.936;5.334;2023-10-09T03:46:03;17.40;99.90
25024;DHT22;13033;50.936;5.334;2023-10-09T03:48:30;17.40;99.90
25024;DHT22;13033;50.936;5.334;2023-10-09T03:51:02;17.40;99.90
25024;DHT22;13033;50.936;5.334;2023-10-09T03:53:37;17.50;99.90
25024;DHT22;13033;50.936;5.334;2023-10-09T03:56:06;17.60;99.90
25024;DHT22;13033;50.936;5.334;2023-10-09T03:58:41;17.50;99.90
25024;DHT22;13033;50.936;5.334;2023-10-09T04:01:15;17.30;99.90
25024;DHT22;13033;50.936;5.334;2023-10-09T04:03:57;17.20;99.90
25024;DHT22;13033;50.936;5.334;2023-10-09T04:06:27;17.10;99.90
25024;DHT22;13033;50.936;5.334;2023-10-09T04:08:58;17.40;99.90
25024;DHT22;13033;50.936;5.334;2023-10-09T04:11:25;17.30;99.90
25024;DHT22;13033;50.936;5.334;2023-10-09T04:13:51;17.20;99.90
25024;DHT22;13033;50.936;5.334;2023-10-09T04:16:18;17.30;99.90
25024;DHT22;13033;50.936;5.334;2023-10-09T04:18:53;17.00;99.90
25024;DHT22;13033;50.936;5.334;2023-10-09T04:21:22;17.10;99.90
25024;DHT22;13033;50.936;5.334;2023-10-09T04:24:05;17.00;99.90
25024;DHT22;13033;50.936;5.334;2023-10-09T04:26:44;16.90;99.90
25024;DHT22;13033;50.936;5.334;2023-10-09T04:29:14;17.00;99.90
25024;DHT22;13033;50.936;5.334;2023-10-09T04:31:49;17.00;99.90
25024;DHT22;13033;50.936;5.334;2023-10-09T04:34:21;16.90;99.90
25024;DHT22;13033;50.936;5.334;2023-10-09T04:36:47;17.10;99.90
25024;DHT22;13033;50.936;5.334;2023-10-09T04:39:15;17.10;99.90
25024;DHT22;13033;50.936;5.334;2023-10-09T04:41:41;17.00;99.90
25024;DHT22;13033;50.936;5.334;2023-10-09T04:44:06;17.10;99.90
25024;DHT22;13033;50.936;5.334;2023-10-09T04:46:48;17.30;99.90
25024;DHT22;13033;50.936;5.334;2023-10-09T04:49:37;17.40;99.90
25024;DHT22;13033;50.936;5.334;2023-10-09T04:52:11;17.30;99.90
25024;DHT22;13033;50.936;5.334;2023-10-09T04:55:04;17.20;99.90
25024;DHT22;13033;50.936;5.334;2023-10-09T04:57:34;17.10;99.90
25024;DHT22;13033;50.936;5.334;2023-10-09T05:00:13;17.00;99.90
25024;DHT22;13033;50.936;5.334;2023-10-09T05:05:39;16.90;99.90
25024;DHT22;13033;50.936;5.334;2023-10-09T05:10:46;16.80;99.90
25024;DHT22;13033;50.936;5.334;2023-10-09T05:13:34;17.00;99.90
25024;DHT22;13033;50.936;5.334;2023-10-09T05:16:15;17.00;99.90
25024;DHT22;13033;50.936;5.334;2023-10-09T05:18:49;17.10;99.90
25024;DHT22;13033;50.936;5.334;2023-10-09T05:21:38;17.20;99.90
25024;DHT22;13033;50.936;5.334;2023-10-09T05:24:07;17.00;99.90
25024;DHT22;13033;50.936;5.334;2023-10-09T05:26:48;16.90;99.90
25024;DHT22;13033;50.936;5.334;2023-10-09T05:32:05;17.00;99.90
25024;DHT22;13033;50.936;5.334;2023-10-09T05:34:41;17.30;99.90
25024;DHT22;13033;50.936;5.334;2023-10-09T05:37:27;17.40;99.90
25024;DHT22;13033;50.936;5.334;2023-10-09T05:40:00;17.20;99.90
25024;DHT22;13033;50.936;5.334;2023-10-09T05:42:45;17.30;99.90
25024;DHT22;13033;50.936;5.334;2023-10-09T05:45:15;17.30;99.90
25024;DHT22;13033;50.936;5.334;2023-10-09T05:48:00;17.20;99.90
25024;DHT22;13033;50.936;5.334;2023-10-09T05:50:29;17.10;99.90
25024;DHT22;13033;50.936;5.334;2023-10-09T05:52:56;17.30;99.90
25024;DHT22;13033;50.936;5.334;2023-10-09T05:55:23;17.30;99.90
25024;DHT22;13033;50.936;5.334;2023-10-09T05:58:08;17.30;99.90
25024;DHT22;13033;50.936;5.334;2023-10-09T06:00:52;17.20;99.90
25024;DHT22;13033;50.936;5.334;2023-10-09T06:03:36;17.10;99.90
25024;DHT22;13033;50.936;5.334;2023-10-09T06:06:31;17.20;99.90
25024;DHT22;13033;50.936;5.334;2023-10-09T06:09:03;17.10;99.90
25024;DHT22;13033;50.936;5.334;2023-10-09T06:11:45;17.10;99.90
25024;DHT22;13033;50.936;5.334;2023-10-09T06:14:36;17.10;99.90
25024;DHT22;13033;50.936;5.334;2023-10-09T06:17:02;17.00;99.90
25024;DHT22;13033;50.936;5.334;2023-10-09T06:19:47;17.40;99.90
25024;DHT22;13033;50.936;5.334;2023-10-09T06:22:14;17.70;99.90
25024;DHT22;13033;50.936;5.334;2023-10-09T06:24:59;17.50;99.90
25024;DHT22;13033;50.936;5.334;2023-10-09T06:27:34;17.30;99.90
25024;DHT22;13033;50.936;5.334;2023-10-09T06:30:00;17.30;99.90
25024;DHT22;13033;50.936;5.334;2023-10-09T06:32:38;17.40;99.90
25024;DHT22;13033;50.936;5.334;2023-10-09T06:35:15;17.50;99.90
25024;DHT22;13033;50.936;5.334;2023-10-09T06:37:46;17.40;99.90
25024;DHT22;13033;50.936;5.334;2023-10-09T06:43:17;17.40;99.90
25024;DHT22;13033;50.936;5.334;2023-10-09T06:45:56;17.30;99.90
25024;DHT22;13033;50.936;5.334;2023-10-09T06:48:41;17.30;99.90
25024;DHT22;13033;50.936;5.334;2023-10-09T06:51:13;17.20;99.90
25024;DHT22;13033;50.936;5.334;2023-10-09T06:53:55;17.40;99.90
25024;DHT22;13033;50.936;5.334;2023-10-09T06:56:27;17.40;99.90
25024;DHT22;13033;50.936;5.334;2023-10-09T06:58:59;17.50;99.90
25024;DHT22;13033;50.936;5.334;2023-10-09T07:01:29;17.50;99.90
25024;DHT22;13033;50.936;5.334;2023-10-09T07:04:05;17.60;99.90
25024;DHT22;13033;50.936;5.334;2023-10-09T07:07:06;17.50;99.90
25024;DHT22;13033;50.936;5.334;2023-10-09T07:09:47;17.30;99.90
25024;DHT22;13033;50.936;5.334;2023-10-09T07:12:36;17.20;99.90
25024;DHT22;13033;50.936;5.334;2023-10-09T07:15:08;17.30;99.90
25024;DHT22;13033;50.936;5.334;2023-10-09T07:17:34;17.30;99.90
25024;DHT22;13033;50.936;5.334;2023-10-09T07:20:00;17.10;99.90
25024;DHT22;13033;50.936;5.334;2023-10-09T07:22:38;17.10;99.90
25024;DHT22;13033;50.936;5.334;2023-10-09T07:25:20;17.30;99.90
25024;DHT22;13033;50.936;5.334;2023-10-09T07:28:04;17.30;99.90
25024;DHT22;13033;50.936;5.334;2023-10-09T07:30:44;17.20;99.90
25024;DHT22;13033;50.936;5.334;2023-10-09T07:33:09;17.30;99.90
25024;DHT22;13033;50.936;5.334;2023-10-09T07:35:35;17.40;99.90
25024;DHT22;13033;50.936;5.334;2023-10-09T07:38:17;17.30;99.90
25024;DHT22;13033;50.936;5.334;2023-10-09T07:40:48;17.20;99.90
25024;DHT22;13033;50.936;5.334;2023-10-09T07:43:34;17.20;99.90
25024;DHT22;13033;50.936;5.334;2023-10-09T07:46:15;17.40;99.90
25024;DHT22;13033;50.936;5.334;2023-10-09T07:51:26;17.40;99.90
25024;DHT22;13033;50.936;5.334;2023-10-09T07:53:59;17.60;99.90
25024;DHT22;13033;50.936;5.334;2023-10-09T07:56:39;17.70;99.90
25024;DHT22;13033;50.936;5.334;2023-10-09T07:59:09;18.00;99.90
25024;DHT22;13033;50.936;5.334;2023-10-09T08:01:43;18.10;99.90
25024;DHT22;13033;50.936;5.334;2023-10-09T08:04:19;18.00;99.90
25024;DHT22;13033;50.936;5.334;2023-10-09T08:07:03;18.20;99.90
25024;DHT22;13033;50.936;5.334;2023-10-09T08:09:32;18.10;99.90
25024;DHT22;13033;50.936;5.334;2023-10-09T08:12:16;18.20;99.90
25024;DHT22;13033;50.936;5.334;2023-10-09T08:15:02;18.30;99.90
25024;DHT22;13033;50.936;5.334;2023-10-09T08:17:57;18.30;99.90
25024;DHT22;13033;50.936;5.334;2023-10-09T08:20:35;18.30;99.90
25024;DHT22;13033;50.936;5.334;2023-10-09T08:23:17;18.50;99.90
25024;DHT22;13033;50.936;5.334;2023-10-09T08:26:09;18.60;99.90
25024;DHT22;13033;50.936;5.334;2023-10-09T08:28:54;18.70;99.90
25024;DHT22;13033;50.936;5.334;2023-10-09T08:31:40;18.80;99.90
25024;DHT22;13033;50.936;5.334;2023-10-09T08:34:14;18.60;99.90
25024;DHT22;13033;50.936;5.334;2023-10-09T08:36:53;18.70;99.90
25024;DHT22;13033;50.936;5.334;2023-10-09T08:39:22;18.70;99.90
25024;DHT22;13033;50.936;5.334;2023-10-09T08:41:54;19.00;99.90
25024;DHT22;13033;50.936;5.334;2023-10-09T08:44:27;19.30;99.90
25024;DHT22;13033;50.936;5.334;2023-10-09T08:46:56;18.80;99.90
25024;DHT22;13033;50.936;5.334;2023-10-09T08:49:23;18.80;99.90
25024;DHT22;13033;50.936;5.334;2023-10-09T08:51:49;18.90;99.90
25024;DHT22;13033;50.936;5.334;2023-10-09T08:54:18;18.90;99.90
25024;DHT22;13033;50.936;5.334;2023-10-09T08:56:46;19.10;99.90
25024;DHT22;13033;50.936;5.334;2023-10-09T08:59:19;19.10;99.90
25024;DHT22;13033;50.936;5.334;2023-10-09T09:01:49;19.40;99.90
25024;DHT22;13033;50.936;5.334;2023-10-09T09:04:43;19.50;99.90
25024;DHT22;13033;50.936;5.334;2023-10-09T09:07:27;19.70;99.90
25024;DHT22;13033;50.936;5.334;2023-10-09T09:10:04;19.90;99.90
25024;DHT22;13033;50.936;5.334;2023-10-09T09:12:43;19.90;99.90
25024;DHT22;13033;50.936;5.334;2023-10-09T09:15:18;19.80;99.90
25024;DHT22;13033;50.936;5.334;2023-10-09T09:17:48;19.50;99.90
25024;DHT22;13033;50.936;5.334;2023-10-09T09:20:24;19.30;99.90
25024;DHT22;13033;50.936;5.334;2023-10-09T09:22:57;19.30;99.90
25024;DHT22;13033;50.936;5.334;2023-10-09T09:25:40;19.50;99.90
25024;DHT22;13033;50.936;5.334;2023-10-09T09:28:09;19.70;99.90
25024;DHT22;13033;50.936;5.334;2023-10-09T09:30:38;19.90;99.90
25024;DHT22;13033;50.936;5.334;2023-10-09T09:33:20;20.20;99.90
25024;DHT22;13033;50.936;5.334;2023-10-09T09:36:09;20.50;99.90
25024;DHT22;13033;50.936;5.334;2023-10-09T09:38:37;20.50;99.90
25024;DHT22;13033;50.936;5.334;2023-10-09T09:41:30;20.60;99.90
25024;DHT22;13033;50.936;5.334;2023-10-09T09:43:59;20.60;99.90
25024;DHT22;13033;50.936;5.334;2023-10-09T09:46:32;21.00;99.90
25024;DHT22;13033;50.936;5.334;2023-10-09T09:49:03;21.20;99.90
25024;DHT22;13033;50.936;5.334;2023-10-09T09:51:32;21.10;99.90
25024;DHT22;13033;50.936;5.334;2023-10-09T09:53:58;21.10;99.90
25024;DHT22;13033;50.936;5.334;2023-10-09T09:56:28;21.20;99.90
25024;DHT22;13033;50.936;5.334;2023-10-09T09:58:57;21.40;99.90
25024;DHT22;13033;50.936;5.334;2023-10-09T10:01:30;21.70;99.90
25024;DHT22;13033;50.936;5.334;2023-10-09T10:04:07;21.70;99.90
25024;DHT22;13033;50.936;5.334;2023-10-09T10:06:37;21.30;99.90
25024;DHT22;13033;50.936;5.334;2023-10-09T10:09:06;21.20;99.90
25024;DHT22;13033;50.936;5.334;2023-10-09T10:11:48;21.40;99.90
25024;DHT22;13033;50.936;5.334;2023-10-09T10:14:19;21.50;99.90
25024;DHT22;13033;50.936;5.334;2023-10-09T10:17:04;21.60;99.90
25024;DHT22;13033;50.936;5.334;2023-10-09T10:22:29;21.50;99.90
25024;DHT22;13033;50.936;5.334;2023-10-09T10:24:58;21.60;99.90
25024;DHT22;13033;50.936;5.334;2023-10-09T10:27:28;21.70;99.90
25024;DHT22;13033;50.936;5.334;2023-10-09T10:35:17;21.90;99.90
25024;DHT22;13033;50.936;5.334;2023-10-09T10:37:46;22.00;99.90
25024;DHT22;13033;50.936;5.334;2023-10-09T10:40:27;21.80;99.90
25024;DHT22;13033;50.936;5.334;2023-10-09T10:43:21;21.80;99.90
25024;DHT22;13033;50.936;5.334;2023-10-09T10:46:06;22.00;99.90
25024;DHT22;13033;50.936;5.334;2023-10-09T10:48:40;22.00;99.90
25024;DHT22;13033;50.936;5.334;2023-10-09T10:51:12;22.00;99.90
25024;DHT22;13033;50.936;5.334;2023-10-09T10:53:53;22.10;99.90
25024;DHT22;13033;50.936;5.334;2023-10-09T10:56:25;22.00;99.90
25024;DHT22;13033;50.936;5.334;2023-10-09T10:59:03;22.00;99.90
25024;DHT22;13033;50.936;5.334;2023-10-09T11:01:32;22.10;99.90
25024;DHT22;13033;50.936;5.334;2023-10-09T11:04:17;22.00;99.90
25024;DHT22;13033;50.936;5.334;2023-10-09T11:06:59;21.70;99.90
25024;DHT22;13033;50.936;5.334;2023-10-09T11:09:48;21.90;99.90
25024;DHT22;13033;50.936;5.334;2023-10-09T11:12:27;21.90;99.90
25024;DHT22;13033;50.936;5.334;2023-10-09T11:15:07;22.10;99.90
25024;DHT22;13033;50.936;5.334;2023-10-09T11:17:35;22.00;99.90
25024;DHT22;13033;50.936;5.334;2023-10-09T11:20:05;22.00;99.90
25024;DHT22;13033;50.936;5.334;2023-10-09T11:22:52;22.20;99.90
25024;DHT22;13033;50.936;5.334;2023-10-09T11:25:45;22.40;99.90
25024;DHT22;13033;50.936;5.334;2023-10-09T11:28:20;22.50;99.90
25024;DHT22;13033;50.936;5.334;2023-10-09T11:31:15;22.60;99.90
25024;DHT22;13033;50.936;5.334;2023-10-09T11:33:44;22.80;99.90
25024;DHT22;13033;50.936;5.334;2023-10-09T11:36:11;23.00;99.90
25024;DHT22;13033;50.936;5.334;2023-10-09T11:38:38;22.90;99.90
25024;DHT22;13033;50.936;5.334;2023-10-09T11:41:17;22.90;99.90
25024;DHT22;13033;50.936;5.334;2023-10-09T11:43:53;23.10;99.90
25024;DHT22;13033;50.936;5.334;2023-10-09T11:46:23;23.10;99.90
25024;DHT22;13033;50.936;5.334;2023-10-09T11:49:24;23.10;99.90
25024;DHT22;13033;50.936;5.334;2023-10-09T11:52:09;22.80;99.90
25024;DHT22;13033;50.936;5.334;2023-10-09T11:54:37;22.50;99.90
25024;DHT22;13033;50.936;5.334;2023-10-09T11:57:03;22.50;99.90
25024;DHT22;13033;50.936;5.334;2023-10-09T11:59:30;22.50;99.90
25024;DHT22;13033;50.936;5.334;2023-10-09T12:02:08;22.50;99.90
25024;DHT22;13033;50.936;5.334;2023-10-09T12:04:41;22.50;99.90
25024;DHT22;13033;50.936;5.334;2023-10-09T12:07:08;22.50;99.90
25024;DHT22;13033;50.936;5.334;2023-10-09T12:09:36;22.60;99.90
25024;DHT22;13033;50.936;5.334;2023-10-09T12:12:03;22.60;99.90
25024;DHT22;13033;50.936;5.334;2023-10-09T12:14:30;22.60;99.90
25024;DHT22;13033;50.936;5.334;2023-10-09T12:17:04;22.60;99.90
25024;DHT22;13033;50.936;5.334;2023-10-09T12:19:37;22.50;99.90
25024;DHT22;13033;50.936;5.334;2023-10-09T12:22:05;22.50;99.90
25024;DHT22;13033;50.936;5.334;2023-10-09T12:24:32;22.70;99.90
25024;DHT22;13033;50.936;5.334;2023-10-09T12:26:59;23.00;99.90
25024;DHT22;13033;50.936;5.334;2023-10-09T12:29:25;23.10;99.90
25024;DHT22;13033;50.936;5.334;2023-10-09T12:31:56;23.20;99.90
25024;DHT22;13033;50.936;5.334;2023-10-09T12:34:27;23.00;99.90
25024;DHT22;13033;50.936;5.334;2023-10-09T12:36:54;22.90;99.90
25024;DHT22;13033;50.936;5.334;2023-10-09T12:39:23;22.80;99.90
25024;DHT22;13033;50.936;5.334;2023-10-09T12:41:49;22.80;99.90
25024;DHT22;13033;50.936;5.334;2023-10-09T12:44:19;22.80;99.90
25024;DHT22;13033;50.936;5.334;2023-10-09T12:46:47;22.70;99.90
25024;DHT22;13033;50.936;5.334;2023-10-09T12:49:20;22.70;99.90
25024;DHT22;13033;50.936;5.334;2023-10-09T12:51:54;22.50;99.90
25024;DHT22;13033;50.936;5.334;2023-10-09T12:54:20;22.60;99.90
25024;DHT22;13033;50.936;5.334;2023-10-09T12:56:52;22.50;99.90
25024;DHT22;13033;50.936;5.334;2023-10-09T12:59:18;22.60;99.90
25024;DHT22;13033;50.936;5.334;2023-10-09T13:01:45;22.50;99.90
25024;DHT22;13033;50.936;5.334;2023-10-09T13:04:15;22.40;99.90
25024;DHT22;13033;50.936;5.334;2023-10-09T13:06:44;22.50;99.90
25024;DHT22;13033;50.936;5.334;2023-10-09T13:09:11;22.40;99.90
25024;DHT22;13033;50.936;5.334;2023-10-09T13:11:39;22.30;99.90
25024;DHT22;13033;50.936;5.334;2023-10-09T13:14:06;22.20;99.90
25024;DHT22;13033;50.936;5.334;2023-10-09T13:16:42;22.20;99.90
25024;DHT22;13033;50.936;5.334;2023-10-09T13:19:08;22.10;99.90
25024;DHT22;13033;50.936;5.334;2023-10-09T13:21:37;22.10;99.90
25024;DHT22;13033;50.936;5.334;2023-10-09T13:24:05;22.20;99.90
25024;DHT22;13033;50.936;5.334;2023-10-09T13:26:30;22.20;99.90
25024;DHT22;13033;50.936;5.334;2023-10-09T13:28:59;22.20;99.90
25024;DHT22;13033;50.936;5.334;2023-10-09T13:31:26;22.20;99.90
25024;DHT22;13033;50.936;5.334;2023-10-09T13:33:55;22.30;99.90
25024;DHT22;13033;50.936;5.334;2023-10-09T13:36:27;22.40;99.90
25024;DHT22;13033;50.936;5.334;2023-10-09T13:41:44;22.40;99.90
25024;DHT22;13033;50.936;5.334;2023-10-09T13:44:10;22.50;99.90
25024;DHT22;13033;50.936;5.334;2023-10-09T13:46:36;22.80;99.90
25024;DHT22;13033;50.936;5.334;2023-10-09T13:49:07;23.00;99.90
25024;DHT22;13033;50.936;5.334;2023-10-09T13:51:38;23.30;99.90
25024;DHT22;13033;50.936;5.334;2023-10-09T13:54:09;23.50;99.90
25024;DHT22;13033;50.936;5.334;2023-10-09T13:56:35;23.60;99.90
25024;DHT22;13033;50.936;5.334;2023-10-09T13:59:04;23.50;99.90
25024;DHT22;13033;50.936;5.334;2023-10-09T14:01:36;23.30;99.90
25024;DHT22;13033;50.936;5.334;2023-10-09T14:04:05;23.10;99.90
25024;DHT22;13033;50.936;5.334;2023-10-09T14:06:33;23.00;99.90
25024;DHT22;13033;50.936;5.334;2023-10-09T14:09:03;23.00;99.90
25024;DHT22;13033;50.936;5.334;2023-10-09T14:11:32;23.00;99.90
25024;DHT22;13033;50.936;5.334;2023-10-09T14:13:58;23.00;99.90
25024;DHT22;13033;50.936;5.334;2023-10-09T14:16:27;22.90;99.90
25024;DHT22;13033;50.936;5.334;2023-10-09T14:18:54;22.80;99.90
25024;DHT22;13033;50.936;5.334;2023-10-09T14:21:27;22.90;99.90
25024;DHT22;13033;50.936;5.334;2023-10-09T14:23:56;22.70;99.90
25024;DHT22;13033;50.936;5.334;2023-10-09T14:26:28;22.60;99.90
25024;DHT22;13033;50.936;5.334;2023-10-09T14:28:55;22.70;99.90
25024;DHT22;13033;50.936;5.334;2023-10-09T14:31:28;22.70;99.90
25024;DHT22;13033;50.936;5.334;2023-10-09T14:33:55;22.70;99.90
25024;DHT22;13033;50.936;5.334;2023-10-09T14:36:21;22.60;99.90
25024;DHT22;13033;50.936;5.334;2023-10-09T14:38:59;22.50;99.90
25024;DHT22;13033;50.936;5.334;2023-10-09T14:41:26;22.40;99.90
25024;DHT22;13033;50.936;5.334;2023-10-09T14:43:53;22.30;99.90
25024;DHT22;13033;50.936;5.334;2023-10-09T14:46:19;22.30;99.90
25024;DHT22;13033;50.936;5.334;2023-10-09T14:48:54;22.20;99.90
25024;DHT22;13033;50.936;5.334;2023-10-09T14:51:21;22.20;99.90
25024;DHT22;13033;50.936;5.334;2023-10-09T14:53:57;22.30;99.90
25024;DHT22;13033;50.936;5.334;2023-10-09T14:56:29;22.30;99.90
25024;DHT22;13033;50.936;5.334;2023-10-09T14:58:58;22.50;99.90
25024;DHT22;13033;50.936;5.334;2023-10-09T15:01:28;22.50;99.90
25024;DHT22;13033;50.936;5.334;2023-10-09T15:03:56;22.10;99.90
25024;DHT22;13033;50.936;5.334;2023-10-09T15:06:26;22.10;99.90
25024;DHT22;13033;50.936;5.334;2023-10-09T15:08:54;22.20;99.90
25024;DHT22;13033;50.936;5.334;2023-10-09T15:11:40;22.20;99.90
25024;DHT22;13033;50.936;5.334;2023-10-09T15:14:06;22.50;99.90
25024;DHT22;13033;50.936;5.334;2023-10-09T15:16:32;22.90;99.90
25024;DHT22;13033;50.936;5.334;2023-10-09T15:18:57;23.40;99.90
25024;DHT22;13033;50.936;5.334;2023-10-09T15:21:24;23.50;99.90
25024;DHT22;13033;50.936;5.334;2023-10-09T15:24:01;23.20;99.90
25024;DHT22;13033;50.936;5.334;2023-10-09T15:26:27;22.90;99.90
25024;DHT22;13033;50.936;5.334;2023-10-09T15:29:00;22.70;99.90
25024;DHT22;13033;50.936;5.334;2023-10-09T15:31:29;22.70;99.90
25024;DHT22;13033;50.936;5.334;2023-10-09T15:33:56;22.70;99.90
25024;DHT22;13033;50.936;5.334;2023-10-09T15:36:23;22.70;99.90
25024;DHT22;13033;50.936;5.334;2023-10-09T15:38:51;22.70;99.90
25024;DHT22;13033;50.936;5.334;2023-10-09T15:41:17;22.60;99.90
25024;DHT22;13033;50.936;5.334;2023-10-09T15:43:43;22.50;99.90
25024;DHT22;13033;50.936;5.334;2023-10-09T15:46:12;22.60;99.90
25024;DHT22;13033;50.936;5.334;2023-10-09T15:48:42;23.20;99.90
25024;DHT22;13033;50.936;5.334;2023-10-09T15:51:11;23.80;99.90
25024;DHT22;13033;50.936;5.334;2023-10-09T15:53:46;24.30;99.90
25024;DHT22;13033;50.936;5.334;2023-10-09T15:56:13;24.30;99.90
25024;DHT22;13033;50.936;5.334;2023-10-09T15:58:40;24.10;99.90
25024;DHT22;13033;50.936;5.334;2023-10-09T16:01:18;23.70;99.90
25024;DHT22;13033;50.936;5.334;2023-10-09T16:03:44;23.70;99.90
25024;DHT22;13033;50.936;5.334;2023-10-09T16:06:14;23.50;99.90
25024;DHT22;13033;50.936;5.334;2023-10-09T16:08:42;23.30;99.90
25024;DHT22;13033;50.936;5.334;2023-10-09T16:11:11;22.90;99.90
25024;DHT22;13033;50.936;5.334;2023-10-09T16:13:38;22.90;99.90
25024;DHT22;13033;50.936;5.334;2023-10-09T16:16:05;22.90;99.90
25024;DHT22;13033;50.936;5.334;2023-10-09T16:18:37;22.90;99.90
25024;DHT22;13033;50.936;5.334;2023-10-09T16:21:05;22.50;99.90
25024;DHT22;13033;50.936;5.334;2023-10-09T16:23:32;22.30;99.90
25024;DHT22;13033;50.936;5.334;2023-10-09T16:25:58;22.20;99.90
25024;DHT22;13033;50.936;5.334;2023-10-09T16:28:29;21.90;99.90
25024;DHT22;13033;50.936;5.334;2023-10-09T16:30:56;21.70;99.90
25024;DHT22;13033;50.936;5.334;2023-10-09T16:33:23;21.70;99.90
25024;DHT22;13033;50.936;5.334;2023-10-09T16:35:51;21.60;99.90
25024;DHT22;13033;50.936;5.334;2023-10-09T16:38:20;21.40;99.90